createdAt,value
2018-12-07T00:01:18.778Z,95441.59
2018-12-07T00:03:48.497Z,95449.56
2018-12-07T00:06:19.124Z,95447.48
2018-12-07T00:08:48.516Z,95442.85
2018-12-07T00:11:18.244Z,95436.81
2018-12-07T00:13:48.080Z,95436.00
2018-12-07T00:16:17.508Z,95438.82
2018-12-07T00:18:47.088Z,95434.73
2018-12-07T00:21:16.550Z,95441.79
2018-12-07T00:23:46.135Z,95440.86
2018-12-07T00:26:15.529Z,95442.59
2018-12-07T00:28:45.096Z,95437.55
2018-12-07T00:31:14.397Z,95428.39
2018-12-07T00:33:43.888Z,95431.10
2018-12-07T00:36:13.557Z,95427.55
2018-12-07T00:38:42.945Z,95432.00
2018-12-07T00:41:12.568Z,95431.52
2018-12-07T00:43:42.092Z,95426.48
2018-12-07T00:46:11.772Z,95423.06
2018-12-07T00:48:41.312Z,95418.65
2018-12-07T00:51:11.061Z,95418.49
2018-12-07T00:53:40.664Z,95417.49
2018-12-07T00:56:09.999Z,95423.53
2018-12-07T00:58:40.356Z,95421.59
2018-12-07T01:01:09.641Z,95425.14
2018-12-07T01:03:39.089Z,95417.28
2018-12-07T01:06:08.665Z,95422.75
2018-12-07T01:08:38.461Z,95421.05
2018-12-07T01:11:07.938Z,95418.23
2018-12-07T01:13:37.385Z,95417.48
2018-12-07T01:16:06.900Z,95427.64
2018-12-07T01:18:36.295Z,95429.31
2018-12-07T01:21:05.866Z,95432.96
2018-12-07T01:23:35.361Z,95429.34
2018-12-07T01:26:05.070Z,95422.30
2018-12-07T01:28:34.379Z,95423.16
2018-12-07T01:31:04.010Z,95420.77
2018-12-07T01:33:33.469Z,95420.19
2018-12-07T01:36:02.856Z,95417.48
2018-12-07T01:38:32.583Z,95414.82
2018-12-07T01:41:02.018Z,95406.86
2018-12-07T01:43:31.623Z,95414.11
2018-12-07T01:46:01.288Z,95419.64
2018-12-07T01:48:30.525Z,95423.88
2018-12-07T01:51:00.187Z,95428.02
2018-12-07T01:53:29.529Z,95417.62
2018-12-07T01:55:59.056Z,95419.36
2018-12-07T01:58:28.583Z,95424.73
2018-12-07T02:00:58.303Z,95436.89
2018-12-07T02:03:27.591Z,95435.00
2018-12-07T02:05:57.024Z,95161.88
2018-12-07T02:08:26.866Z,95435.13
2018-12-07T02:10:56.387Z,95437.05
2018-12-07T02:13:25.919Z,95430.95
2018-12-07T02:15:55.485Z,95418.39
2018-12-07T02:18:24.832Z,95416.94
2018-12-07T02:20:54.076Z,95419.08
2018-12-07T02:23:23.705Z,95419.55
2018-12-07T02:25:53.279Z,95414.88
2018-12-07T02:28:22.777Z,95409.20
2018-12-07T02:30:52.416Z,95409.27
2018-12-07T02:33:22.117Z,95402.97
2018-12-07T02:35:51.903Z,95405.59
2018-12-07T02:38:21.200Z,95402.51
2018-12-07T02:40:50.608Z,95394.00
2018-12-07T02:43:19.957Z,95402.42
2018-12-07T02:45:49.442Z,95394.63
2018-12-07T02:48:19.084Z,95398.87
2018-12-07T02:50:48.539Z,95394.39
2018-12-07T02:53:18.073Z,95397.54
2018-12-07T02:55:47.729Z,95405.66
2018-12-07T02:58:17.063Z,95406.40
2018-12-07T03:00:46.772Z,95409.36
2018-12-07T03:03:16.521Z,95412.17
2018-12-07T03:05:45.817Z,95418.69
2018-12-07T03:08:15.718Z,95422.10
2018-12-07T03:10:45.152Z,95416.78
2018-12-07T03:13:14.782Z,95419.48
2018-12-07T03:15:44.548Z,95432.95
2018-12-07T03:18:29.403Z,95428.37
2018-12-07T03:20:59.318Z,95429.73
2018-12-07T03:23:28.795Z,95434.83
2018-12-07T03:25:58.062Z,95428.64
2018-12-07T03:28:28.036Z,95431.57
2018-12-07T03:30:57.487Z,95436.30
2018-12-07T03:33:26.890Z,95432.02
2018-12-07T03:35:56.137Z,95425.67
2018-12-07T03:38:26.431Z,95426.68
2018-12-07T03:40:56.280Z,95420.09
2018-12-07T03:43:25.893Z,95427.28
2018-12-07T03:45:55.346Z,95422.61
2018-12-07T03:48:24.982Z,95423.09
2018-12-07T03:50:54.582Z,95425.23
2018-12-07T03:53:24.626Z,95426.73
2018-12-07T03:55:54.006Z,95421.41
2018-12-07T03:58:24.402Z,95421.81
2018-12-07T04:00:54.485Z,95428.75
2018-12-07T04:03:24.032Z,95426.91
2018-12-07T04:05:53.353Z,95421.47
2018-12-07T04:08:22.993Z,95439.55
2018-12-07T04:10:52.396Z,95437.13
2018-12-07T04:13:21.805Z,95442.49
2018-12-07T04:15:51.827Z,95439.78
2018-12-07T04:18:21.236Z,95439.78
2018-12-07T04:20:50.708Z,95441.62
2018-12-07T04:23:20.552Z,95451.34
2018-12-07T04:25:49.852Z,95452.03
2018-12-07T04:28:21.619Z,95440.46
2018-12-07T04:30:51.456Z,95439.91
2018-12-07T04:33:20.864Z,95436.28
2018-12-07T04:35:50.450Z,95425.16
2018-12-07T04:38:20.011Z,95427.70
2018-12-07T04:40:49.618Z,95425.06
2018-12-07T04:43:19.253Z,95418.05
2018-12-07T04:45:48.918Z,95418.57
2018-12-07T04:48:18.686Z,95422.14
2018-12-07T04:50:48.247Z,95421.16
2018-12-07T04:53:17.747Z,95412.08
2018-12-07T04:55:47.568Z,95418.45
2018-12-07T04:58:17.047Z,95419.73
2018-12-07T05:00:46.376Z,95418.92
2018-12-07T05:03:16.232Z,95423.37
2018-12-07T05:05:45.688Z,95425.16
2018-12-07T05:08:15.212Z,95433.85
2018-12-07T05:10:44.818Z,95436.96
2018-12-07T05:13:14.361Z,95439.22
2018-12-07T05:15:44.044Z,95442.06
2018-12-07T05:18:13.538Z,95440.27
2018-12-07T05:20:43.171Z,95437.70
2018-12-07T05:23:12.755Z,95438.89
2018-12-07T05:25:42.629Z,95441.05
2018-12-07T05:28:11.981Z,95445.44
2018-12-07T05:30:41.307Z,95443.28
2018-12-07T05:33:11.008Z,95447.62
2018-12-07T05:35:40.469Z,95446.05
2018-12-07T05:38:09.777Z,95444.31
2018-12-07T05:40:39.405Z,95449.48
2018-12-07T05:43:09.120Z,95452.62
2018-12-07T05:45:38.725Z,95456.46
2018-12-07T05:48:08.315Z,95452.36
2018-12-07T05:50:38.069Z,95452.51
2018-12-07T05:53:07.423Z,95458.23
2018-12-07T05:55:37.030Z,95456.14
2018-12-07T05:58:06.808Z,95455.72
2018-12-07T06:00:36.344Z,95453.41
2018-12-07T06:03:06.060Z,95460.89
2018-12-07T06:05:35.821Z,95463.20
2018-12-07T06:08:05.153Z,95453.94
2018-12-07T06:10:34.778Z,95461.88
2018-12-07T06:13:05.560Z,95463.69
2018-12-07T06:15:35.033Z,95462.27
2018-12-07T06:18:04.552Z,95467.05
2018-12-07T06:20:34.427Z,95466.81
2018-12-07T06:23:03.866Z,95476.90
2018-12-07T06:25:33.314Z,95478.86
2018-12-07T06:28:02.863Z,95473.32
2018-12-07T06:30:32.257Z,95475.46
2018-12-07T06:33:01.821Z,95470.89
2018-12-07T06:35:31.488Z,95470.47
2018-12-07T06:38:01.209Z,95465.05
2018-12-07T06:40:30.840Z,95470.50
2018-12-07T06:43:00.512Z,95461.85
2018-12-07T06:45:29.957Z,95456.06
2018-12-07T06:47:59.463Z,95451.37
2018-12-07T06:50:28.909Z,95462.72
2018-12-07T06:52:58.342Z,95456.56
2018-12-07T06:55:28.189Z,95453.19
2018-12-07T06:57:57.664Z,95450.23
2018-12-07T07:00:27.172Z,95464.92
2018-12-07T07:02:57.095Z,95261.28
2018-12-07T07:05:26.634Z,95476.85
2018-12-07T07:07:56.378Z,95486.09
2018-12-07T07:10:25.873Z,95486.05
2018-12-07T07:12:55.320Z,95483.25
2018-12-07T07:15:24.773Z,95499.55
2018-12-07T07:17:54.361Z,95498.27
2018-12-07T07:20:23.888Z,95505.56
2018-12-07T07:22:53.889Z,95493.09
2018-12-07T07:25:24.389Z,95494.59
2018-12-07T07:27:54.245Z,95485.31
2018-12-07T07:30:24.707Z,95488.01
2018-12-07T07:32:54.370Z,95483.86
2018-12-07T07:35:23.880Z,95481.56
2018-12-07T07:37:53.378Z,95465.91
2018-12-07T07:40:22.872Z,95454.44
2018-12-07T07:42:52.334Z,95455.44
2018-12-07T07:45:21.866Z,95450.81
2018-12-07T07:47:51.373Z,95455.34
2018-12-07T07:50:20.916Z,95454.16
2018-12-07T07:52:50.386Z,95448.63
2018-12-07T07:55:20.054Z,95435.94
2018-12-07T07:57:49.648Z,95428.54
2018-12-07T08:00:19.433Z,95430.41
2018-12-07T08:02:48.964Z,95420.34
2018-12-07T08:05:18.460Z,95428.74
2018-12-07T08:07:48.125Z,95421.41
2018-12-07T08:10:17.759Z,95430.41
2018-12-07T08:12:47.510Z,95412.27
2018-12-07T08:15:16.857Z,95404.06
2018-12-07T08:17:46.392Z,95403.42
2018-12-07T08:20:15.972Z,95397.80
2018-12-07T08:22:45.612Z,95390.60
2018-12-07T08:25:15.000Z,95395.56
2018-12-07T08:27:44.425Z,95388.17
2018-12-07T08:30:14.094Z,95379.75
2018-12-07T08:32:43.444Z,95389.66
2018-12-07T08:35:12.853Z,95387.23
2018-12-07T08:37:42.412Z,95388.52
2018-12-07T08:40:12.049Z,95382.87
2018-12-07T08:42:41.464Z,95387.20
2018-12-07T08:45:11.322Z,95385.03
2018-12-07T08:47:40.901Z,95390.32
2018-12-07T08:50:10.797Z,95389.83
2018-12-07T08:52:40.103Z,95387.77
2018-12-07T08:55:09.505Z,95382.06
2018-12-07T08:57:38.742Z,95379.81
2018-12-07T09:00:10.348Z,95377.72
2018-12-07T09:02:40.849Z,95369.16
2018-12-07T09:05:10.196Z,95368.91
2018-12-07T09:07:39.914Z,95365.13
2018-12-07T09:10:09.328Z,95353.96
2018-12-07T09:12:38.745Z,95353.86
2018-12-07T09:15:08.214Z,95345.30
2018-12-07T09:17:37.599Z,95347.14
2018-12-07T09:20:08.380Z,95344.30
2018-12-07T09:22:37.770Z,95263.09
2018-12-07T09:25:08.256Z,95324.45
2018-12-07T09:27:37.853Z,95316.02
2018-12-07T09:30:07.280Z,95310.33
2018-12-07T09:32:36.929Z,95310.83
2018-12-07T09:35:06.988Z,95305.55
2018-12-07T09:37:36.349Z,95297.07
2018-12-07T09:40:06.039Z,95297.81
2018-12-07T09:42:35.300Z,95304.09
2018-12-07T09:45:05.916Z,95305.14
2018-12-07T09:47:35.533Z,95295.45
2018-12-07T09:50:05.757Z,95289.40
2018-12-07T09:52:35.284Z,95280.88
2018-12-07T09:55:05.212Z,95280.08
2018-12-07T09:57:34.652Z,95276.09
2018-12-07T10:00:04.545Z,95265.08
2018-12-07T10:02:34.296Z,95263.62
2018-12-07T10:05:03.861Z,95258.73
2018-12-07T10:07:33.405Z,95251.64
2018-12-07T10:10:02.811Z,95248.75
2018-12-07T10:12:32.544Z,95249.14
2018-12-07T10:15:01.999Z,95237.41
2018-12-07T10:17:31.431Z,95230.91
2018-12-07T10:20:00.960Z,95227.77
2018-12-07T10:22:30.553Z,95227.87
2018-12-07T10:24:59.854Z,95223.63
2018-12-07T10:27:29.737Z,95216.87
2018-12-07T10:29:59.297Z,95223.87
2018-12-07T10:32:28.716Z,95218.98
2018-12-07T10:34:58.035Z,95219.25
2018-12-07T10:37:27.436Z,95219.36
2018-12-07T10:39:56.850Z,95224.50
2018-12-07T10:42:26.249Z,95226.89
2018-12-07T10:44:55.575Z,95223.63
2018-12-07T10:47:25.105Z,95228.36
2018-12-07T10:49:54.792Z,95225.36
2018-12-07T10:52:24.266Z,95234.03
2018-12-07T10:54:53.786Z,95223.53
2018-12-07T10:57:23.269Z,95220.41
2018-12-07T10:59:52.818Z,95212.18
2018-12-07T11:03:25.341Z,95208.80
2018-12-07T11:05:59.945Z,95203.45
2018-12-07T11:08:34.702Z,95206.30
2018-12-07T11:11:09.193Z,95202.63
2018-12-07T11:14:12.143Z,95203.83
2018-12-07T11:16:47.189Z,95190.69
2018-12-07T11:19:21.956Z,95177.12
2018-12-07T11:21:56.524Z,95162.78
2018-12-07T11:24:31.256Z,95158.30
2018-12-07T11:27:05.850Z,95152.06
2018-12-07T11:29:40.405Z,95137.48
2018-12-07T11:35:09.432Z,95110.66
2018-12-07T11:37:39.006Z,95101.91
2018-12-07T11:40:09.012Z,95101.31
2018-12-07T11:42:40.431Z,95105.05
2018-12-07T11:45:10.127Z,95104.09
2018-12-07T11:47:39.839Z,95103.25
2018-12-07T11:50:10.413Z,95106.59
2018-12-07T11:52:39.685Z,95102.55
2018-12-07T11:55:09.282Z,95108.07
2018-12-07T11:57:40.036Z,95101.69
2018-12-07T12:00:10.156Z,95099.10
2018-12-07T12:02:39.841Z,95107.94
2018-12-07T12:05:09.408Z,95107.12
2018-12-07T12:07:38.949Z,95119.15
2018-12-07T12:10:08.545Z,95123.70
2018-12-07T12:12:40.309Z,95128.30
2018-12-07T12:15:09.672Z,95121.18
2018-12-07T12:17:39.106Z,95108.52
2018-12-07T12:20:09.650Z,95095.15
2018-12-07T12:22:39.216Z,95089.20
2018-12-07T12:25:08.726Z,95079.36
2018-12-07T12:27:38.341Z,95085.28
2018-12-07T12:30:08.610Z,95084.28
2018-12-07T12:32:37.984Z,95085.61
2018-12-07T12:35:07.842Z,95080.91
2018-12-07T12:37:37.531Z,95082.61
2018-12-07T12:40:06.934Z,95073.52
2018-12-07T12:42:36.486Z,95073.88
2018-12-07T12:45:06.350Z,95073.02
2018-12-07T12:47:35.636Z,95071.41
2018-12-07T12:50:08.219Z,95071.54
2018-12-07T12:52:37.850Z,95071.39
2018-12-07T12:55:07.301Z,95080.03
2018-12-07T12:57:36.945Z,95076.59
2018-12-07T13:00:06.781Z,95083.83
2018-12-07T13:02:36.422Z,95084.43
2018-12-07T13:05:06.308Z,95086.88
2018-12-07T13:07:36.820Z,95083.91
2018-12-07T13:10:06.629Z,95085.69
2018-12-07T13:12:36.166Z,95086.39
2018-12-07T13:15:06.459Z,95082.14
2018-12-07T13:17:35.748Z,95081.28
2018-12-07T13:20:06.262Z,95083.91
2018-12-07T13:22:35.860Z,95091.21
2018-12-07T13:25:05.903Z,95092.13
2018-12-07T13:27:35.525Z,95087.02
2018-12-07T13:30:05.584Z,95087.08
2018-12-07T13:32:35.273Z,95093.33
2018-12-07T13:35:04.824Z,95094.55
2018-12-07T13:37:34.069Z,95094.56
2018-12-07T13:40:04.393Z,95097.02
2018-12-07T13:42:34.563Z,95088.83
2018-12-07T13:45:04.705Z,95093.69
2018-12-07T13:47:34.711Z,95093.51
2018-12-07T13:50:10.299Z,95088.77
2018-12-07T13:52:39.952Z,95091.97
2018-12-07T13:55:09.602Z,95085.84
2018-12-07T13:57:41.415Z,95083.20
2018-12-07T14:00:11.531Z,95081.00
2018-12-07T14:02:41.263Z,95079.50
2018-12-07T14:05:10.989Z,95080.44
2018-12-07T14:07:40.752Z,95073.38
2018-12-07T14:10:10.570Z,95080.96
2018-12-07T14:12:40.472Z,95077.66
2018-12-07T14:15:10.650Z,95072.94
2018-12-07T14:17:40.366Z,95065.22
2018-12-07T14:20:10.673Z,95061.45
2018-12-07T14:22:40.326Z,95054.89
2018-12-07T14:25:09.929Z,95050.15
2018-12-07T14:27:39.819Z,95051.12
2018-12-07T14:30:10.997Z,95049.77
2018-12-07T14:32:40.774Z,95047.06
2018-12-07T14:35:10.646Z,95050.66
2018-12-07T14:37:40.258Z,95049.12
2018-12-07T14:40:09.900Z,95049.16
2018-12-07T14:42:39.465Z,95053.09
2018-12-07T14:45:09.602Z,95046.20
2018-12-07T14:47:40.551Z,95037.61
2018-12-07T14:50:10.221Z,95035.40
2018-12-07T14:52:39.962Z,95040.02
2018-12-07T14:55:09.264Z,95036.98
2018-12-07T14:57:38.641Z,95033.41
2018-12-07T15:00:09.441Z,95033.23
2018-12-07T15:02:39.242Z,95027.80
2018-12-07T15:05:08.646Z,95018.14
2018-12-07T15:07:38.265Z,95013.42
2018-12-07T15:10:09.167Z,95007.47
2018-12-07T15:12:39.160Z,94997.00
2018-12-07T15:15:09.233Z,95013.37
2018-12-07T15:17:38.935Z,95006.20
2018-12-07T15:20:09.847Z,95006.00
2018-12-07T15:22:39.604Z,95013.57
2018-12-07T15:25:09.392Z,95015.87
2018-12-07T15:27:38.822Z,95006.83
2018-12-07T15:30:09.892Z,95005.31
2018-12-07T15:32:40.593Z,95024.07
2018-12-07T15:35:10.168Z,95022.55
2018-12-07T15:37:40.065Z,95027.72
2018-12-07T15:40:10.913Z,95026.63
2018-12-07T15:42:40.677Z,95032.37
2018-12-07T15:45:10.554Z,95037.66
2018-12-07T15:47:40.480Z,95044.25
2018-12-07T15:50:10.377Z,95047.92
2018-12-07T15:52:40.014Z,95050.47
2018-12-07T15:55:10.182Z,95054.00
2018-12-07T15:57:40.174Z,95056.28
2018-12-07T16:00:10.245Z,95057.70
2018-12-07T16:02:39.965Z,95057.48
2018-12-07T16:05:09.573Z,95062.80
2018-12-07T16:07:39.366Z,95083.51
2018-12-07T16:10:09.880Z,95081.52
2018-12-07T16:12:39.537Z,95079.14
2018-12-07T16:15:09.298Z,95077.25
2018-12-07T16:17:38.934Z,95078.25
2018-12-07T16:20:13.393Z,95079.64
2018-12-07T16:22:43.105Z,95080.59
2018-12-07T16:25:12.440Z,95085.86
2018-12-07T16:27:42.040Z,95078.92
2018-12-07T16:30:11.767Z,95079.38
2018-12-07T16:32:41.610Z,95073.20
2018-12-07T16:35:11.453Z,95068.67
2018-12-07T16:37:41.221Z,95065.75
2018-12-07T16:40:11.084Z,95060.14
2018-12-07T16:42:40.508Z,95055.16
2018-12-07T16:45:10.117Z,95054.84
2018-12-07T16:47:39.783Z,95045.18
2018-12-07T16:50:09.247Z,95040.05
2018-12-07T16:52:39.190Z,95029.86
2018-12-07T16:55:08.951Z,95030.55
2018-12-07T16:57:38.746Z,95032.43
2018-12-07T17:00:09.238Z,95025.12
2018-12-07T17:02:39.161Z,95029.42
2018-12-07T17:05:10.114Z,95025.90
2018-12-07T17:07:39.751Z,95023.30
2018-12-07T17:10:09.491Z,95028.42
2018-12-07T17:12:39.339Z,95035.69
2018-12-07T17:15:09.264Z,95020.95
2018-12-07T17:17:39.094Z,95042.02
2018-12-07T17:20:09.117Z,95041.28
2018-12-07T17:22:38.811Z,95031.17
2018-12-07T17:25:08.890Z,95031.21
2018-12-07T17:27:38.739Z,95044.70
2018-12-07T17:30:08.425Z,95037.64
2018-12-07T17:32:38.276Z,95044.21
2018-12-07T17:35:07.981Z,95044.65
2018-12-07T17:37:37.395Z,95036.08
2018-12-07T17:40:07.763Z,95033.78
2018-12-07T17:42:37.429Z,95037.80
2018-12-07T17:45:07.499Z,95036.29
2018-12-07T17:47:37.242Z,95042.86
2018-12-07T17:50:09.021Z,95040.80
2018-12-07T17:52:39.206Z,95039.09
2018-12-07T17:55:08.901Z,95026.05
2018-12-07T17:57:38.678Z,95030.84
2018-12-07T18:00:11.335Z,95026.67
2018-12-07T18:02:41.201Z,95014.37
2018-12-07T18:05:10.628Z,95009.80
2018-12-07T18:07:40.381Z,95003.22
2018-12-07T18:10:10.540Z,95003.59
2018-12-07T18:12:39.896Z,94997.11
2018-12-07T18:15:10.878Z,94998.55
2018-12-07T18:17:41.123Z,94996.36
2018-12-07T18:20:10.677Z,94990.61
2018-12-07T18:22:40.488Z,94993.78
2018-12-07T18:25:09.881Z,94997.29
2018-12-07T18:27:39.755Z,94987.63
2018-12-07T18:30:09.571Z,94999.91
2018-12-07T18:32:39.148Z,94991.92
2018-12-07T18:35:09.535Z,94999.70
2018-12-07T18:37:38.941Z,94998.60
2018-12-07T18:40:09.245Z,94994.43
2018-12-07T18:42:39.069Z,94987.46
2018-12-07T18:45:09.096Z,94988.50
2018-12-07T18:47:38.951Z,94989.74
2018-12-07T18:50:09.586Z,94987.81
2018-12-07T18:52:39.167Z,94989.08
2018-12-07T18:55:10.655Z,94984.80
2018-12-07T18:57:40.310Z,94978.47
2018-12-07T19:00:10.308Z,94982.02
2018-12-07T19:02:46.321Z,94988.27
2018-12-07T19:05:15.663Z,94989.06
2018-12-07T19:07:45.419Z,94979.38
2018-12-07T19:10:15.608Z,94979.59
2018-12-07T19:12:45.396Z,94971.53
2018-12-07T19:15:14.842Z,94983.71
2018-12-07T19:17:44.525Z,94980.56
2018-12-07T19:20:14.344Z,94983.97
2018-12-07T19:22:43.940Z,94971.70
2018-12-07T19:25:13.766Z,94981.59
2018-12-07T19:27:43.625Z,94988.01
2018-12-07T19:30:14.790Z,94987.48
2018-12-07T19:32:46.274Z,94977.45
2018-12-07T19:35:15.880Z,94965.76
2018-12-07T19:37:45.487Z,94964.52
2018-12-07T19:40:15.159Z,94960.97
2018-12-07T19:42:44.746Z,94966.60
2018-12-07T19:45:14.558Z,94965.50
2018-12-07T19:47:44.270Z,94964.80
2018-12-07T19:50:13.761Z,94959.52
2018-12-07T19:52:43.638Z,94870.23
2018-12-07T19:55:13.508Z,94968.46
2018-12-07T19:57:43.518Z,94966.79
2018-12-07T20:00:14.092Z,94965.23
2018-12-07T20:02:44.187Z,94953.95
2018-12-07T20:05:14.084Z,94958.55
2018-12-07T20:07:43.388Z,94948.50
2018-12-07T20:10:13.107Z,94947.27
2018-12-07T20:12:43.358Z,94949.22
2018-12-07T20:15:13.327Z,94943.80
2018-12-07T20:17:43.207Z,94939.34
2018-12-07T20:20:13.158Z,94940.84
2018-12-07T20:22:42.569Z,94938.47
2018-12-07T20:25:12.411Z,94943.86
2018-12-07T20:27:42.289Z,94937.53
2018-12-07T20:30:12.558Z,94934.63
2018-12-07T20:32:43.547Z,94926.63
2018-12-07T20:35:13.480Z,94922.63
2018-12-07T20:37:42.944Z,94926.17
2018-12-07T20:40:12.396Z,94926.17
2018-12-07T20:42:42.579Z,94916.41
2018-12-07T20:45:12.286Z,94911.14
2018-12-07T20:47:42.233Z,94917.52
2018-12-07T20:50:12.389Z,94913.84
2018-12-07T20:52:42.233Z,94914.80
2018-12-07T20:55:12.410Z,94906.27
2018-12-07T20:57:41.905Z,94907.19
2018-12-07T21:00:11.917Z,94908.36
2018-12-07T21:02:42.073Z,94831.95
2018-12-07T21:05:59.076Z,94900.97
2018-12-07T21:09:32.726Z,94898.94
2018-12-07T21:12:09.804Z,94901.61
2018-12-07T21:14:44.213Z,94893.33
2018-12-07T21:17:23.682Z,94892.50
2018-12-07T21:19:57.629Z,94895.09
2018-12-07T21:22:27.718Z,94889.13
2018-12-07T21:24:57.248Z,94892.57
2018-12-07T21:27:26.923Z,94900.03
2018-12-07T21:32:58.517Z,94899.92
2018-12-07T21:35:27.964Z,94890.51
2018-12-07T21:37:57.527Z,94883.89
2018-12-07T21:40:30.496Z,94890.28
2018-12-07T21:43:00.171Z,94894.70
2018-12-07T21:45:30.181Z,94894.42
2018-12-07T21:48:21.746Z,94894.74
2018-12-07T21:50:56.993Z,94887.91
2018-12-07T21:53:27.126Z,94875.14
2018-12-07T21:55:56.509Z,94872.55
2018-12-07T21:58:26.037Z,94867.39
2018-12-07T22:00:55.646Z,94867.58
2018-12-07T22:03:25.156Z,94863.73
2018-12-07T22:05:55.116Z,94857.03
2018-12-07T22:08:24.977Z,94855.75
2018-12-07T22:10:54.844Z,94853.47
2018-12-07T22:13:24.437Z,94854.02
2018-12-07T22:15:54.041Z,94846.09
2018-12-07T22:18:23.576Z,94844.59
2018-12-07T22:20:53.088Z,94845.20
2018-12-07T22:23:23.057Z,94849.81
2018-12-07T22:25:52.932Z,94842.38
2018-12-07T22:28:22.492Z,94841.34
2018-12-07T22:30:51.912Z,94843.08
2018-12-07T22:33:21.301Z,94836.45
2018-12-07T22:35:50.641Z,94823.92
2018-12-07T22:38:20.322Z,94822.11
2018-12-07T22:40:50.140Z,94831.59
2018-12-07T22:43:19.930Z,94828.30
2018-12-07T22:45:49.677Z,94817.53
2018-12-07T22:48:19.366Z,94816.66
2018-12-07T22:50:48.809Z,94815.28
2018-12-07T22:53:18.289Z,94809.45
2018-12-07T22:55:47.744Z,94809.29
2018-12-07T22:58:17.135Z,94804.30
2018-12-07T23:00:48.497Z,94803.45
2018-12-07T23:03:18.733Z,94798.86
2018-12-07T23:05:48.463Z,94800.14
2018-12-07T23:08:18.346Z,94788.61
2018-12-07T23:10:47.746Z,94793.44
2018-12-07T23:13:17.219Z,94790.41
2018-12-07T23:15:46.762Z,94798.78
2018-12-07T23:18:16.164Z,94787.70
2018-12-07T23:20:45.713Z,94782.06
2018-12-07T23:23:15.156Z,94774.27
2018-12-07T23:25:44.890Z,94785.16
2018-12-07T23:28:19.438Z,94781.83
2018-12-07T23:30:45.907Z,94782.50
2018-12-07T23:33:15.677Z,94779.61
2018-12-07T23:35:45.262Z,94780.87
2018-12-07T23:38:14.629Z,94775.75
2018-12-07T23:40:44.079Z,94775.72
2018-12-07T23:43:13.585Z,94772.50
2018-12-07T23:45:43.354Z,94769.69
2018-12-07T23:48:13.000Z,94772.06
2018-12-07T23:50:42.496Z,94761.22
2018-12-07T23:53:12.150Z,94756.56
2018-12-07T23:55:41.549Z,94758.35
2018-12-07T23:58:10.945Z,94762.81
